createdAt,value
2019-02-16T00:00:45.105Z,17.27
2019-02-16T00:03:14.087Z,19.35
2019-02-16T00:05:43.056Z,17.75
2019-02-16T00:08:12.035Z,18.23
2019-02-16T00:10:41.238Z,16.50
2019-02-16T00:13:10.222Z,17.27
2019-02-16T00:15:39.356Z,17.75
2019-02-16T00:18:08.344Z,20.55
2019-02-16T00:20:37.498Z,18.12
2019-02-16T00:23:06.530Z,18.10
2019-02-16T00:25:35.520Z,16.48
2019-02-16T00:28:04.478Z,19.40
2019-02-16T00:30:33.485Z,17.65
2019-02-16T00:33:02.454Z,15.30
2019-02-16T00:35:31.502Z,16.50
2019-02-16T00:38:00.458Z,15.85
2019-02-16T00:40:29.435Z,15.60
2019-02-16T00:42:58.421Z,17.07
2019-02-16T00:45:27.437Z,20.17
2019-02-16T00:47:56.482Z,17.62
2019-02-16T00:50:27.111Z,17.15
2019-02-16T00:52:56.089Z,16.17
2019-02-16T00:55:25.146Z,15.78
2019-02-16T00:57:54.100Z,16.77
2019-02-16T01:00:23.071Z,16.77
2019-02-16T01:02:52.079Z,17.40
2019-02-16T01:05:21.146Z,18.32
2019-02-16T01:07:50.176Z,19.12
2019-02-16T01:10:19.256Z,18.35
2019-02-16T01:12:48.406Z,21.70
2019-02-16T01:15:17.421Z,16.87
2019-02-16T01:17:46.404Z,17.00
2019-02-16T01:20:15.536Z,16.60
2019-02-16T01:22:44.610Z,17.07
2019-02-16T01:25:13.655Z,16.25
2019-02-16T01:27:42.715Z,17.35
2019-02-16T01:30:11.913Z,16.12
2019-02-16T01:32:40.907Z,17.32
2019-02-16T01:35:09.998Z,16.97
2019-02-16T01:37:38.975Z,15.03
2019-02-16T01:40:09.275Z,17.00
2019-02-16T01:42:38.394Z,15.63
2019-02-16T01:45:08.842Z,18.10
2019-02-16T01:47:37.818Z,16.05
2019-02-16T01:50:08.017Z,16.62
2019-02-16T01:52:37.124Z,14.95
2019-02-16T01:55:08.527Z,14.50
2019-02-16T01:57:37.494Z,18.30
2019-02-16T02:00:08.303Z,15.50
2019-02-16T02:02:37.279Z,16.25
2019-02-16T02:05:07.187Z,16.05
2019-02-16T02:07:36.232Z,14.80
2019-02-16T02:10:07.040Z,14.07
2019-02-16T02:12:36.046Z,15.43
2019-02-16T02:15:07.953Z,15.83
2019-02-16T02:17:36.996Z,17.60
2019-02-16T02:20:08.283Z,18.00
2019-02-16T02:22:37.576Z,17.07
2019-02-16T02:25:09.682Z,15.10
2019-02-16T02:27:38.671Z,17.57
2019-02-16T02:30:10.055Z,17.27
2019-02-16T02:32:39.107Z,15.53
2019-02-16T02:35:08.925Z,14.83
2019-02-16T02:37:38.031Z,16.12
2019-02-16T02:40:08.348Z,16.32
2019-02-16T02:42:37.581Z,15.30
2019-02-16T02:45:09.567Z,15.13
2019-02-16T02:47:38.542Z,13.62
2019-02-16T02:50:08.000Z,15.30
2019-02-16T02:52:36.995Z,15.83
2019-02-16T02:55:07.205Z,15.80
2019-02-16T02:57:36.160Z,14.60
2019-02-16T03:00:08.221Z,14.98
2019-02-16T03:02:37.370Z,15.93
2019-02-16T03:05:08.664Z,14.20
2019-02-16T03:07:37.642Z,14.55
2019-02-16T03:10:07.558Z,14.38
2019-02-16T03:12:36.643Z,15.25
2019-02-16T03:15:06.747Z,14.00
2019-02-16T03:17:35.860Z,14.95
2019-02-16T03:20:05.644Z,15.43
2019-02-16T03:23:00.253Z,14.83
2019-02-16T03:25:29.230Z,14.45
2019-02-16T03:28:12.971Z,14.35
2019-02-16T03:31:13.514Z,13.65
2019-02-16T03:33:48.113Z,13.15
2019-02-16T03:36:35.209Z,14.03
2019-02-16T03:39:07.343Z,13.78
2019-02-16T03:41:36.302Z,15.25
2019-02-16T03:44:05.260Z,14.40
2019-02-16T03:46:34.244Z,14.53
2019-02-16T03:49:04.779Z,13.28
2019-02-16T03:51:33.744Z,13.32
2019-02-16T03:54:02.808Z,13.53
2019-02-16T03:56:31.864Z,11.70
2019-02-16T03:59:00.899Z,14.73
2019-02-16T04:01:29.936Z,14.28
2019-02-16T04:03:58.990Z,14.07
2019-02-16T04:06:28.028Z,15.83
2019-02-16T04:08:57.000Z,12.95
2019-02-16T04:11:26.048Z,13.13
2019-02-16T04:13:55.022Z,12.58
2019-02-16T04:16:23.991Z,14.75
2019-02-16T04:18:52.947Z,11.60
2019-02-16T04:21:21.954Z,15.43
2019-02-16T04:23:50.905Z,13.78
2019-02-16T04:26:19.883Z,14.28
2019-02-16T04:28:48.872Z,14.00
2019-02-16T04:31:17.918Z,11.83
2019-02-16T04:33:46.949Z,13.75
2019-02-16T04:36:16.841Z,13.72
2019-02-16T04:38:45.801Z,14.13
2019-02-16T04:41:14.836Z,13.35
2019-02-16T04:43:44.127Z,11.95
2019-02-16T04:46:13.163Z,13.20
2019-02-16T04:48:42.203Z,12.65
2019-02-16T04:51:11.174Z,13.48
2019-02-16T04:53:40.178Z,11.33
2019-02-16T04:56:10.415Z,11.33
2019-02-16T04:58:39.669Z,13.05
2019-02-16T05:01:08.629Z,11.38
2019-02-16T05:03:37.672Z,11.97
2019-02-16T05:06:07.035Z,13.48
2019-02-16T05:08:35.993Z,14.18
2019-02-16T05:11:05.008Z,11.22
2019-02-16T05:13:33.981Z,11.60
2019-02-16T05:16:02.954Z,12.40
2019-02-16T05:18:32.082Z,14.87
2019-02-16T05:21:01.138Z,12.20
2019-02-16T05:23:30.083Z,14.47
2019-02-16T05:25:59.051Z,13.03
2019-02-16T05:28:28.015Z,10.68
2019-02-16T05:30:56.985Z,12.33
2019-02-16T05:33:25.950Z,12.98
2019-02-16T05:35:54.904Z,11.10
2019-02-16T05:38:23.885Z,11.53
2019-02-16T05:40:52.917Z,10.78
2019-02-16T05:43:21.876Z,9.80
2019-02-16T05:45:50.885Z,13.43
2019-02-16T05:48:19.841Z,9.95
2019-02-16T05:50:48.976Z,11.80
2019-02-16T05:53:19.790Z,12.33
2019-02-16T05:55:48.627Z,9.48
2019-02-16T05:58:17.959Z,10.48
2019-02-16T06:00:47.111Z,11.38
2019-02-16T06:03:16.128Z,13.90
2019-02-16T06:05:45.113Z,11.75
2019-02-16T06:08:14.163Z,16.45
2019-02-16T06:10:43.155Z,16.02
2019-02-16T06:13:12.116Z,12.05
2019-02-16T06:15:41.123Z,9.60
2019-02-16T06:18:10.157Z,11.10
2019-02-16T06:20:39.150Z,16.75
2019-02-16T06:23:08.115Z,9.28
2019-02-16T06:25:37.095Z,11.93
2019-02-16T06:28:06.095Z,12.37
2019-02-16T06:30:35.049Z,14.78
2019-02-16T06:33:04.018Z,13.13
2019-02-16T06:35:40.385Z,14.83
2019-02-16T06:38:09.346Z,13.32
2019-02-16T06:40:38.312Z,16.62
2019-02-16T06:43:07.323Z,12.30
2019-02-16T06:45:36.277Z,9.83
2019-02-16T06:48:05.241Z,13.90
2019-02-16T06:50:37.009Z,19.37
2019-02-16T06:53:12.950Z,14.13
2019-02-16T06:55:37.314Z,11.12
2019-02-16T06:58:06.265Z,12.58
2019-02-16T07:00:35.327Z,12.53
2019-02-16T07:03:04.394Z,12.73
2019-02-16T07:05:33.427Z,12.40
2019-02-16T07:08:02.386Z,12.47
2019-02-16T07:10:31.363Z,10.85
2019-02-16T07:13:00.400Z,10.90
2019-02-16T07:15:29.551Z,12.10
2019-02-16T07:18:00.187Z,15.65
2019-02-16T07:20:29.238Z,13.05
2019-02-16T07:22:58.275Z,13.90
2019-02-16T07:25:27.273Z,15.23
2019-02-16T07:27:56.250Z,13.68
2019-02-16T07:30:25.285Z,20.80
2019-02-16T07:32:54.267Z,14.20
2019-02-16T07:35:23.300Z,24.12
2019-02-16T07:37:52.270Z,21.77
2019-02-16T07:40:21.487Z,19.32
2019-02-16T07:42:55.239Z,17.30
2019-02-16T07:45:34.037Z,24.02
2019-02-16T07:48:13.960Z,14.47
2019-02-16T07:50:50.373Z,19.12
2019-02-16T07:53:20.991Z,19.35
2019-02-16T07:55:51.626Z,13.70
2019-02-16T07:58:25.247Z,16.87
2019-02-16T08:01:08.279Z,12.13
2019-02-16T08:03:44.767Z,14.55
2019-02-16T08:06:15.416Z,18.82
2019-02-16T08:08:46.093Z,13.43
2019-02-16T08:11:22.641Z,19.40
2019-02-16T08:13:58.092Z,14.83
2019-02-16T08:16:28.874Z,15.55
2019-02-16T08:19:15.588Z,13.22
2019-02-16T08:21:48.851Z,16.40
2019-02-16T08:24:35.986Z,23.10
2019-02-16T08:27:06.759Z,18.45
2019-02-16T08:29:53.705Z,18.40
2019-02-16T08:32:42.406Z,18.35
2019-02-16T08:35:13.237Z,21.00
2019-02-16T08:37:43.890Z,20.72
2019-02-16T08:40:17.170Z,19.00
2019-02-16T08:43:04.283Z,22.25
2019-02-16T08:45:41.064Z,38.58
2019-02-16T08:48:11.704Z,46.05
2019-02-16T08:50:54.410Z,28.52
2019-02-16T08:53:25.026Z,24.30
2019-02-16T08:55:55.625Z,30.25
2019-02-16T08:58:38.138Z,23.05
2019-02-16T09:01:11.575Z,26.15
2019-02-16T09:03:53.989Z,24.52
2019-02-16T09:06:27.434Z,25.08
2019-02-16T09:08:58.441Z,26.15
2019-02-16T09:11:41.118Z,24.37
2019-02-16T09:14:29.545Z,27.55
2019-02-16T09:17:02.724Z,29.48
2019-02-16T09:19:49.458Z,22.45
2019-02-16T09:22:23.038Z,23.07
2019-02-16T09:25:09.809Z,24.90
2019-02-16T09:27:43.254Z,30.45
2019-02-16T09:30:13.862Z,19.95
2019-02-16T09:32:47.425Z,23.35
2019-02-16T09:35:35.924Z,25.12
2019-02-16T09:38:23.062Z,30.08
2019-02-16T09:40:53.723Z,25.55
2019-02-16T09:43:24.420Z,25.62
2019-02-16T09:46:04.103Z,26.77
2019-02-16T09:48:34.980Z,30.95
2019-02-16T09:51:05.695Z,36.45
2019-02-16T09:53:48.532Z,33.83
2019-02-16T09:56:22.460Z,27.15
2019-02-16T09:58:55.932Z,25.48
2019-02-16T10:01:35.516Z,23.75
2019-02-16T10:04:06.127Z,26.25
2019-02-16T10:06:53.103Z,23.55
2019-02-16T10:09:38.890Z,26.93
2019-02-16T10:12:09.507Z,25.92
2019-02-16T10:14:40.138Z,36.88
2019-02-16T10:17:22.693Z,61.23
2019-02-16T10:19:57.403Z,49.77
2019-02-16T10:22:29.118Z,44.05
2019-02-16T10:25:15.681Z,40.95
2019-02-16T10:27:46.461Z,45.08
2019-02-16T10:30:19.641Z,49.05
2019-02-16T10:33:02.220Z,44.60
2019-02-16T10:35:32.898Z,48.90
2019-02-16T10:38:06.388Z,41.40
2019-02-16T10:40:42.931Z,42.00
2019-02-16T10:43:13.559Z,41.25
2019-02-16T10:45:47.141Z,36.98
2019-02-16T10:48:20.765Z,43.60
2019-02-16T10:50:57.160Z,35.52
2019-02-16T10:53:39.904Z,35.68
2019-02-16T10:56:25.403Z,47.33
2019-02-16T10:58:56.060Z,42.88
2019-02-16T11:01:32.614Z,56.15
2019-02-16T11:04:06.043Z,45.25
2019-02-16T11:06:36.706Z,43.68
2019-02-16T11:09:14.618Z,47.53
2019-02-16T11:11:51.142Z,50.65
2019-02-16T11:14:24.439Z,43.50
2019-02-16T11:17:09.996Z,48.15
2019-02-16T11:19:43.485Z,46.92
2019-02-16T11:22:14.109Z,45.08
2019-02-16T11:24:47.421Z,37.85
2019-02-16T11:27:30.138Z,41.00
2019-02-16T11:30:03.686Z,37.15
2019-02-16T11:32:46.237Z,37.50
2019-02-16T11:35:16.920Z,40.95
2019-02-16T11:37:56.718Z,40.90
2019-02-16T11:40:36.096Z,41.15
2019-02-16T11:43:15.601Z,35.05
2019-02-16T11:45:46.285Z,36.55
2019-02-16T11:48:16.938Z,32.15
2019-02-16T11:50:50.746Z,36.17
2019-02-16T11:53:30.507Z,35.98
2019-02-16T11:56:17.440Z,29.67
2019-02-16T11:58:50.967Z,33.38
2019-02-16T12:01:36.854Z,33.75
2019-02-16T12:04:19.497Z,28.35
2019-02-16T12:06:50.184Z,31.80
2019-02-16T12:09:26.764Z,33.73
2019-02-16T12:11:57.374Z,34.78
2019-02-16T12:14:30.698Z,31.62
2019-02-16T12:17:17.587Z,33.92
2019-02-16T12:19:48.268Z,33.48
2019-02-16T12:22:18.942Z,31.85
2019-02-16T12:25:06.469Z,31.40
2019-02-16T12:27:46.358Z,38.60
2019-02-16T12:30:22.594Z,28.27
2019-02-16T12:32:53.272Z,28.50
2019-02-16T12:35:26.547Z,29.25
2019-02-16T12:37:57.334Z,37.23
2019-02-16T12:40:27.983Z,29.80
2019-02-16T12:43:16.640Z,29.00
2019-02-16T12:45:51.422Z,27.45
2019-02-16T12:48:22.330Z,25.88
2019-02-16T12:50:55.721Z,26.73
2019-02-16T12:53:26.608Z,30.35
2019-02-16T12:55:57.206Z,25.82
2019-02-16T12:58:36.991Z,25.60
2019-02-16T13:01:07.662Z,31.97
2019-02-16T13:03:44.226Z,31.40
2019-02-16T13:06:20.547Z,30.55
2019-02-16T13:08:53.948Z,25.82
2019-02-16T13:11:33.575Z,30.30
2019-02-16T13:14:04.213Z,25.20
2019-02-16T13:16:37.562Z,26.82
2019-02-16T13:19:14.777Z,33.58
2019-02-16T13:21:45.378Z,32.23
2019-02-16T13:24:25.162Z,43.23
2019-02-16T13:27:01.848Z,33.73
2019-02-16T13:29:41.547Z,29.48
2019-02-16T13:32:28.961Z,32.15
2019-02-16T13:35:17.726Z,32.90
2019-02-16T13:38:00.375Z,29.72
2019-02-16T13:40:31.038Z,27.95
2019-02-16T13:43:01.683Z,27.20
2019-02-16T13:45:47.581Z,25.97
2019-02-16T13:48:18.416Z,23.02
2019-02-16T13:51:04.094Z,25.30
2019-02-16T13:53:43.649Z,26.52
2019-02-16T13:56:14.269Z,25.43
2019-02-16T13:59:01.035Z,23.57
2019-02-16T14:01:31.689Z,27.67
2019-02-16T14:04:08.144Z,23.40
2019-02-16T14:06:38.771Z,21.85
2019-02-16T14:09:15.410Z,21.37
2019-02-16T14:11:46.052Z,22.07
2019-02-16T14:14:19.614Z,22.77
2019-02-16T14:16:56.211Z,24.25
2019-02-16T14:19:25.209Z,22.13
2019-02-16T14:21:54.182Z,24.35
2019-02-16T14:24:40.118Z,29.50
2019-02-16T14:27:09.101Z,25.15
2019-02-16T14:29:38.191Z,31.30
2019-02-16T14:32:07.212Z,20.97
2019-02-16T14:34:36.288Z,22.60
2019-02-16T14:37:06.891Z,24.85
2019-02-16T14:39:35.883Z,21.00
2019-02-16T14:42:04.872Z,27.45
2019-02-16T14:44:33.837Z,25.62
2019-02-16T14:47:02.838Z,25.43
2019-02-16T14:49:31.818Z,21.90
2019-02-16T14:52:01.002Z,19.48
2019-02-16T14:54:29.998Z,22.65
2019-02-16T14:56:58.986Z,19.98
2019-02-16T14:59:27.967Z,22.70
2019-02-16T15:01:56.946Z,21.07
2019-02-16T15:04:25.983Z,20.52
2019-02-16T15:06:54.945Z,23.45
2019-02-16T15:09:24.482Z,20.68
2019-02-16T15:11:53.484Z,21.30
2019-02-16T15:14:22.466Z,20.43
2019-02-16T15:16:51.428Z,21.07
2019-02-16T15:19:20.414Z,24.98
2019-02-16T15:21:49.374Z,20.25
2019-02-16T15:24:18.392Z,18.90
2019-02-16T15:26:47.486Z,24.47
2019-02-16T15:29:16.474Z,19.27
2019-02-16T15:31:45.467Z,21.62
2019-02-16T15:34:14.502Z,19.20
2019-02-16T15:36:43.494Z,21.07
2019-02-16T15:39:12.462Z,21.27
2019-02-16T15:41:41.498Z,22.37
2019-02-16T15:44:10.886Z,21.55
2019-02-16T15:46:40.035Z,21.73
2019-02-16T15:49:09.151Z,23.18
2019-02-16T15:51:38.159Z,22.45
2019-02-16T15:54:07.124Z,26.93
2019-02-16T15:56:36.164Z,26.87
2019-02-16T15:59:05.182Z,25.57
2019-02-16T16:01:34.348Z,23.30
2019-02-16T16:04:03.520Z,29.18
2019-02-16T16:06:32.613Z,27.07
2019-02-16T16:09:03.255Z,23.75
2019-02-16T16:11:33.863Z,27.40
2019-02-16T16:14:07.503Z,25.75
2019-02-16T16:16:54.453Z,27.07
2019-02-16T16:19:31.042Z,25.20
2019-02-16T16:22:02.129Z,28.62
2019-02-16T16:24:35.497Z,26.90
2019-02-16T16:27:09.204Z,29.27
2019-02-16T16:29:56.412Z,25.77
2019-02-16T16:32:36.259Z,29.85
2019-02-16T16:35:17.058Z,27.48
2019-02-16T16:37:47.725Z,27.58
2019-02-16T16:40:18.337Z,28.20
2019-02-16T16:42:48.958Z,25.17
2019-02-16T16:45:19.638Z,27.65
2019-02-16T16:47:53.265Z,28.85
2019-02-16T16:50:23.993Z,28.55
2019-02-16T16:53:06.620Z,26.75
2019-02-16T16:55:52.129Z,24.82
2019-02-16T16:58:40.860Z,31.42
2019-02-16T17:01:23.627Z,25.90
2019-02-16T17:03:56.782Z,30.70
2019-02-16T17:06:27.502Z,29.52
2019-02-16T17:09:00.662Z,24.90
2019-02-16T17:11:47.257Z,25.20
2019-02-16T17:14:35.718Z,31.30
2019-02-16T17:17:21.017Z,26.10
2019-02-16T17:19:54.276Z,25.37
2019-02-16T17:22:24.965Z,25.10
2019-02-16T17:25:10.937Z,25.00
2019-02-16T17:27:47.700Z,27.52
2019-02-16T17:30:21.237Z,29.02
2019-02-16T17:32:51.841Z,29.45
2019-02-16T17:35:25.444Z,31.17
2019-02-16T17:37:56.114Z,24.98
2019-02-16T17:40:26.734Z,24.35
2019-02-16T17:43:03.129Z,28.80
2019-02-16T17:45:45.742Z,25.80
2019-02-16T17:48:16.479Z,25.85
2019-02-16T17:50:59.096Z,28.02
2019-02-16T17:53:39.031Z,27.40
2019-02-16T17:56:12.538Z,28.30
2019-02-16T17:58:59.785Z,24.52
2019-02-16T18:01:46.562Z,24.77
2019-02-16T18:04:26.190Z,26.85
2019-02-16T18:06:59.760Z,24.18
2019-02-16T18:09:33.129Z,25.65
2019-02-16T18:12:15.772Z,23.35
2019-02-16T18:14:46.470Z,26.40
2019-02-16T18:17:26.049Z,24.65
2019-02-16T18:19:59.394Z,26.42
2019-02-16T18:22:42.121Z,25.57
2019-02-16T18:25:12.995Z,24.50
2019-02-16T18:27:43.710Z,21.93
2019-02-16T18:30:20.395Z,23.90
2019-02-16T18:32:54.033Z,21.50
2019-02-16T18:35:27.362Z,24.70
2019-02-16T18:38:00.802Z,33.40
2019-02-16T18:40:33.952Z,30.85
2019-02-16T18:43:10.567Z,27.90
2019-02-16T18:45:46.621Z,28.12
2019-02-16T18:48:19.708Z,32.73
2019-02-16T18:50:53.015Z,44.55
2019-02-16T18:53:32.446Z,36.03
2019-02-16T18:56:03.290Z,32.63
2019-02-16T18:58:33.933Z,32.78
2019-02-16T19:01:07.247Z,35.68
2019-02-16T19:03:43.438Z,28.57
2019-02-16T19:06:16.699Z,31.00
2019-02-16T19:08:47.306Z,32.33
2019-02-16T19:11:20.551Z,30.45
2019-02-16T19:13:59.989Z,28.73
2019-02-16T19:16:45.470Z,26.87
2019-02-16T19:19:30.997Z,30.80
2019-02-16T19:22:07.985Z,26.73
2019-02-16T19:24:53.868Z,27.17
2019-02-16T19:27:27.056Z,24.72
2019-02-16T19:30:03.462Z,29.15
2019-02-16T19:32:45.926Z,26.82
2019-02-16T19:35:19.101Z,30.17
2019-02-16T19:37:49.804Z,29.65
2019-02-16T19:40:36.580Z,26.65
2019-02-16T19:43:23.672Z,27.35
2019-02-16T19:45:56.846Z,36.30
2019-02-16T19:48:33.135Z,31.57
2019-02-16T19:51:09.651Z,31.15
2019-02-16T19:53:43.054Z,28.25
2019-02-16T19:56:31.427Z,28.87
2019-02-16T19:59:11.022Z,25.48
2019-02-16T20:01:41.661Z,25.50
2019-02-16T20:04:15.245Z,25.75
2019-02-16T20:06:45.892Z,30.70
2019-02-16T20:09:19.312Z,28.35
2019-02-16T20:11:52.832Z,26.77
2019-02-16T20:14:23.437Z,25.48
2019-02-16T20:16:54.106Z,25.97
2019-02-16T20:19:24.786Z,26.45
2019-02-16T20:22:13.630Z,28.73
2019-02-16T20:24:44.235Z,24.05
2019-02-16T20:27:37.031Z,24.92
2019-02-16T20:30:07.885Z,24.75
2019-02-16T20:32:41.397Z,26.70
2019-02-16T20:35:18.239Z,27.55
2019-02-16T20:37:55.513Z,24.05
2019-02-16T20:40:26.123Z,26.40
2019-02-16T20:42:56.726Z,24.92
2019-02-16T20:45:43.750Z,22.52
2019-02-16T20:48:17.486Z,29.30
2019-02-16T20:50:54.002Z,24.85
2019-02-16T20:53:30.227Z,25.02
2019-02-16T20:56:12.796Z,25.75
2019-02-16T20:58:59.341Z,24.32
2019-02-16T21:01:38.903Z,24.07
2019-02-16T21:04:12.471Z,27.32
2019-02-16T21:06:46.124Z,24.63
2019-02-16T21:09:31.966Z,26.48
2019-02-16T21:12:02.574Z,25.35
2019-02-16T21:14:33.290Z,26.35
2019-02-16T21:17:20.010Z,24.63
2019-02-16T21:19:53.466Z,25.17
2019-02-16T21:22:30.062Z,24.23
2019-02-16T21:25:00.745Z,23.90
2019-02-16T21:27:32.071Z,25.37
2019-02-16T21:30:05.490Z,24.50
2019-02-16T21:32:36.093Z,27.00
2019-02-16T21:35:13.812Z,22.07
2019-02-16T21:37:56.249Z,25.40
2019-02-16T21:40:38.851Z,22.20
2019-02-16T21:43:12.058Z,26.25
2019-02-16T21:45:48.470Z,24.55
2019-02-16T21:48:19.146Z,23.38
2019-02-16T21:50:55.688Z,27.80
2019-02-16T21:53:31.974Z,30.95
2019-02-16T21:56:18.541Z,24.57
2019-02-16T21:59:01.256Z,26.65
2019-02-16T22:01:31.902Z,25.25
2019-02-16T22:04:08.661Z,25.77
2019-02-16T22:06:45.114Z,23.90
2019-02-16T22:09:18.628Z,22.50
2019-02-16T22:11:52.226Z,24.92
2019-02-16T22:14:21.201Z,23.02
2019-02-16T22:16:50.212Z,24.37
2019-02-16T22:19:19.254Z,24.75
2019-02-16T22:21:48.294Z,24.70
2019-02-16T22:24:17.316Z,22.67
2019-02-16T22:26:46.359Z,23.38
2019-02-16T22:29:15.432Z,25.85
2019-02-16T22:31:44.399Z,23.47
2019-02-16T22:34:13.710Z,23.32
2019-02-16T22:36:42.742Z,24.98
2019-02-16T22:39:11.701Z,24.85
2019-02-16T22:41:40.734Z,20.27
2019-02-16T22:44:09.726Z,24.07
2019-02-16T22:46:38.690Z,22.77
2019-02-16T22:49:07.786Z,23.67
2019-02-16T22:51:36.829Z,21.95
2019-02-16T22:54:05.790Z,26.07
2019-02-16T22:56:34.766Z,22.35
2019-02-16T22:59:03.843Z,21.55
2019-02-16T23:01:33.155Z,22.62
2019-02-16T23:04:02.319Z,22.75
2019-02-16T23:06:31.430Z,22.85
2019-02-16T23:09:00.405Z,23.45
2019-02-16T23:11:29.404Z,22.40
2019-02-16T23:13:58.379Z,23.52
2019-02-16T23:16:27.334Z,20.43
2019-02-16T23:18:56.304Z,23.10
2019-02-16T23:21:25.338Z,22.32
2019-02-16T23:23:54.311Z,22.98
2019-02-16T23:26:23.290Z,23.98
2019-02-16T23:28:52.391Z,25.82
2019-02-16T23:31:21.741Z,25.02
2019-02-16T23:33:50.742Z,22.22
2019-02-16T23:36:19.708Z,22.73
2019-02-16T23:38:48.691Z,22.20
2019-02-16T23:41:17.755Z,24.90
2019-02-16T23:43:46.871Z,23.27
2019-02-16T23:46:18.960Z,22.75
2019-02-16T23:48:46.952Z,21.65
2019-02-16T23:51:15.967Z,21.15
2019-02-16T23:53:45.016Z,21.50
2019-02-16T23:56:14.115Z,22.60
2019-02-16T23:58:49.341Z,22.98
